Time;durP1;ratioP1;P1;durP2;ratioP2;P2;SDS_P1;SDS_P2;PMS_P1;PMS_P2;Temp;Humidity;BMP_temperature;BMP_pressure;BME280_temperature;BME280_humidity;BME280_pressure;Samples;Min_cycle;Max_cycle;Signal;HPM_P1;HPM_P2
2023/01/27 00:00:00;;;;;;;14.13;4.80;;;;;;;-3.28;66.01;95774.81;5070066;28;20119;-76
2023/01/27 00:02:25;;;;;;;29.88;6.20;;;;;;;-3.26;64.65;95782.53;5073363;28;20067;-76
2023/01/27 00:04:51;;;;;;;12.40;5.25;;;;;;;-3.83;67.10;95771.78;5069638;28;20104;-77
2023/01/27 00:07:16;;;;;;;29.77;5.53;;;;;;;-2.34;61.88;95769.38;5068449;28;20094;-77
2023/01/27 00:09:42;;;;;;;22.20;5.13;;;;;;;-2.41;63.04;95771.50;5068140;28;20089;-77
2023/01/27 00:15:05;;;;;;;19.80;4.53;;;;;;;-2.28;62.06;95765.53;5065530;28;20164;-76
2023/01/27 00:17:31;;;;;;;36.50;5.03;;;;;;;-1.59;60.11;95763.00;5054480;28;20371;-77
2023/01/27 00:19:56;;;;;;;59.03;6.35;;;;;;;-3.54;65.21;95766.72;5068236;28;20108;-77
2023/01/27 00:25:06;;;;;;;26.92;5.70;;;;;;;-3.82;67.73;95768.25;5069874;28;20612;-76
2023/01/27 00:27:31;;;;;;;10.65;5.18;;;;;;;-3.69;67.79;95771.03;5070128;28;20093;-77
2023/01/27 00:29:57;;;;;;;6.72;3.38;;;;;;;-2.16;64.24;95758.75;5069406;28;20080;-76
2023/01/27 00:35:06;;;;;;;53.08;5.82;;;;;;;-2.70;63.82;95760.22;5066929;28;20109;-76
2023/01/27 00:37:32;;;;;;;9.95;4.25;;;;;;;-1.35;60.06;95759.72;5072976;28;20080;-76
2023/01/27 00:39:57;;;;;;;6.90;3.70;;;;;;;-0.80;58.05;95756.22;5069732;28;20100;-76
2023/01/27 00:42:23;;;;;;;12.32;4.22;;;;;;;-1.65;59.10;95762.56;5072283;28;20254;-77
2023/01/27 00:45:50;;;;;;;5.93;3.58;;;;;;;-1.23;59.19;95768.56;5064682;28;20081;-77
2023/01/27 00:47:43;;;;;;;8.23;4.22;;;;;;;-1.24;57.71;95761.66;5054084;28;20124;-77
2023/01/27 00:50:09;;;;;;;5.25;3.42;;;;;;;-0.76;58.03;95762.91;5069441;28;20528;-76
2023/01/27 00:52:34;;;;;;;10.05;4.40;;;;;;;-1.59;59.13;95765.59;5070933;28;20105;-76
2023/01/27 00:54:59;;;;;;;7.43;4.82;;;;;;;-2.59;62.19;95767.41;5065202;28;20081;-77
2023/01/27 00:57:25;;;;;;;7.20;4.35;;;;;;;-1.31;58.67;95760.38;5072886;28;20210;-77
2023/01/27 00:59:50;;;;;;;5.20;3.70;;;;;;;-1.16;58.97;95760.31;5067763;28;20089;-77
2023/01/27 01:02:15;;;;;;;7.43;4.22;;;;;;;-1.54;58.11;95760.09;5072999;28;20084;-76
2023/01/27 01:04:41;;;;;;;7.07;3.90;;;;;;;-1.42;58.67;95768.06;5066094;28;20101;-76
2023/01/27 01:07:06;;;;;;;5.18;3.83;;;;;;;-1.42;58.02;95768.06;5067930;28;20087;-77
2023/01/27 01:09:32;;;;;;;4.97;3.50;;;;;;;-1.46;59.69;95763.03;5071079;28;20166;-77
2023/01/27 01:11:57;;;;;;;5.05;3.38;;;;;;;-1.22;58.07;95761.56;5067025;28;20102;-77
2023/01/27 01:14:22;;;;;;;4.72;3.50;;;;;;;-1.11;58.10;95768.69;5070424;28;20087;-76
2023/01/27 01:16:48;;;;;;;6.20;3.72;;;;;;;-1.61;58.44;95769.25;5075970;28;20103;-76
2023/01/27 01:19:13;;;;;;;6.40;3.90;;;;;;;-2.47;62.03;95771.06;5067722;28;20107;-77
2023/01/27 01:21:39;;;;;;;6.45;4.05;;;;;;;-2.16;61.13;95769.19;5070197;28;20238;-77
2023/01/27 01:24:04;;;;;;;5.32;3.22;;;;;;;-1.25;60.21;95777.44;5071653;28;20110;-77
2023/01/27 01:26:30;;;;;;;5.75;3.88;;;;;;;-1.39;57.84;95783.56;5048448;28;20468;-76
2023/01/27 01:28:55;;;;;;;4.28;3.17;;;;;;;-0.50;56.65;95772.53;5070538;28;20645;-76
2023/01/27 01:31:20;;;;;;;5.93;3.70;;;;;;;-1.62;59.11;95785.88;5061940;28;20109;-77
2023/01/27 01:33:46;;;;;;;5.40;3.28;;;;;;;-1.27;58.17;95781.91;5049578;28;20136;-77
2023/01/27 01:36:14;;;;;;;5.30;3.30;;;;;;;-1.47;58.87;95782.28;5049001;28;20101;-76
2023/01/27 01:38:39;;;;;;;5.22;3.60;;;;;;;-1.92;60.81;95792.91;5067124;28;20092;-77
2023/01/27 01:41:05;;;;;;;5.03;3.58;;;;;;;-2.55;62.18;95792.38;5071345;28;20080;-76
2023/01/27 01:43:31;;;;;;;6.38;3.33;;;;;;;-1.40;59.99;95789.69;5044070;28;20123;-77
2023/01/27 01:45:57;;;;;;;4.70;3.33;;;;;;;-1.44;58.97;95789.06;5057210;28;20117;-76
2023/01/27 01:48:32;;;;;;;4.78;2.95;;;;;;;-1.72;60.40;95790.84;5047774;28;20330;-76
2023/01/27 01:51:19;;;;;;;4.50;3.15;;;;;;;-1.01;58.00;95781.97;5072385;28;20477;-76
2023/01/27 01:53:49;;;;;;;3.15;2.55;;;;;;;-0.31;56.50;95779.94;5058936;28;20084;-77
2023/01/27 01:56:29;;;;;;;3.95;2.50;;;;;;;-0.18;56.06;95780.78;5074640;28;20118;-77
2023/01/27 01:58:54;;;;;;;2.65;2.42;;;;;;;0.22;53.62;95781.56;5053301;28;20070;-76
2023/01/27 02:01:20;;;;;;;2.83;2.30;;;;;;;-1.30;58.79;95793.41;5049716;28;20506;-76
2023/01/27 02:03:48;;;;;;;2.72;2.30;;;;;;;-0.13;56.24;95783.06;5049324;28;20101;-77
2023/01/27 02:06:13;;;;;;;3.08;2.65;;;;;;;-0.29;54.48;95778.09;5052570;28;20195;-77
2023/01/27 02:08:41;;;;;;;3.97;2.90;;;;;;;-0.45;55.15;95776.53;5075500;28;20099;-77
2023/01/27 02:11:10;;;;;;;3.20;2.47;;;;;;;0.21;53.90;95774.66;5070528;28;20404;-77
2023/01/27 02:13:35;;;;;;;3.35;2.58;;;;;;;0.84;52.55;95782.34;5072793;28;20088;-77
2023/01/27 02:16:01;;;;;;;3.22;2.50;;;;;;;0.62;52.59;95777.84;5072532;28;20103;-77
2023/01/27 02:18:27;;;;;;;2.42;2.22;;;;;;;0.97;51.72;95782.28;5073595;28;20077;-77
2023/01/27 02:20:53;;;;;;;3.13;2.47;;;;;;;0.64;52.70;95780.34;5052364;28;20177;-77
2023/01/27 02:23:46;;;;;;;2.38;2.00;;;;;;;0.69;53.08;95773.00;5052344;28;20083;-76
2023/01/27 02:26:39;;;;;;;2.38;2.05;;;;;;;0.99;51.64;95779.56;5067037;28;20075;-77
2023/01/27 02:29:06;;;;;;;2.40;2.20;;;;;;;0.15;53.75;95778.53;5066428;28;20096;-76
2023/01/27 02:31:32;;;;;;;2.15;1.95;;;;;;;0.89;52.21;95771.50;5049365;28;20569;-76
2023/01/27 02:34:09;;;;;;;3.80;2.20;;;;;;;1.21;50.74;95768.28;5068498;28;20173;-76
2023/01/27 02:36:38;;;;;;;2.67;2.33;;;;;;;1.01;50.09;95775.03;5073008;28;20090;-76
2023/01/27 02:39:03;;;;;;;3.28;2.30;;;;;;;1.14;50.78;95774.94;5054218;28;20490;-77
2023/01/27 02:41:46;;;;;;;2.53;2.08;;;;;;;1.20;49.68;95774.47;5046151;28;20065;-77
2023/01/27 02:44:11;;;;;;;2.08;1.90;;;;;;;1.40;50.24;95779.19;5068051;28;20096;-77
2023/01/27 02:46:36;;;;;;;2.20;2.00;;;;;;;1.24;50.45;95775.09;5051767;28;20077;-77
2023/01/27 02:49:02;;;;;;;2.75;2.22;;;;;;;1.05;50.56;95775.63;5071906;28;20068;-76
2023/01/27 02:51:27;;;;;;;3.03;2.05;;;;;;;1.28;50.46;95780.94;5070402;28;20096;-76
2023/01/27 02:53:53;;;;;;;2.13;1.83;;;;;;;1.61;49.50;95774.13;5069932;28;20084;-77
2023/01/27 02:56:18;;;;;;;1.70;1.60;;;;;;;1.60;49.98;95778.53;5073639;28;20093;-76
2023/01/27 02:58:44;;;;;;;1.85;1.75;;;;;;;1.52;49.17;95774.78;5066759;28;20473;-77
2023/01/27 03:01:09;;;;;;;2.22;2.00;;;;;;;1.50;49.34;95773.09;5073422;28;20071;-77
2023/01/27 03:03:35;;;;;;;2.90;2.30;;;;;;;1.17;48.44;95776.50;5071912;28;20507;-77
2023/01/27 03:06:00;;;;;;;2.13;1.92;;;;;;;1.11;50.02;95776.03;5067186;28;20072;-76
2023/01/27 03:08:25;;;;;;;1.90;1.80;;;;;;;1.19;50.99;95772.81;5055902;28;20094;-77
2023/01/27 03:10:51;;;;;;;2.08;1.98;;;;;;;1.31;49.61;95784.19;5065437;28;20072;-76
2023/01/27 03:13:24;;;;;;;1.80;1.70;;;;;;;1.48;49.66;95779.44;5066366;28;20583;-76
2023/01/27 03:18:33;;;;;;;2.47;2.00;;;;;;;1.52;48.57;95775.63;5073998;28;20156;-76
2023/01/27 03:21:03;;;;;;;2.15;1.95;;;;;;;1.55;48.52;95782.44;5068770;28;20102;-77
2023/01/27 03:23:28;;;;;;;2.80;1.90;;;;;;;1.39;49.12;95785.38;5063158;28;20251;-77
2023/01/27 03:25:54;;;;;;;2.03;1.80;;;;;;;1.41;49.20;95778.22;5071091;28;20194;-77
2023/01/27 03:28:19;;;;;;;2.20;2.00;;;;;;;1.14;50.25;95774.09;5073476;28;20097;-77
2023/01/27 03:30:45;;;;;;;2.20;2.00;;;;;;;-0.02;51.39;95784.13;5068956;28;20471;-77
2023/01/27 03:33:10;;;;;;;2.33;2.10;;;;;;;0.62;49.96;95787.50;5071939;28;20119;-77
2023/01/27 03:35:47;;;;;;;2.40;2.20;;;;;;;0.65;50.46;95792.53;5071815;28;20097;-77
2023/01/27 03:46:24;;;;;;;2.58;1.92;;;;;;;0.80;50.18;95799.25;5058819;28;20099;-77
2023/01/27 03:48:51;;;;;;;2.00;1.80;;;;;;;0.81;50.87;95794.84;5075155;28;20674;-77
2023/01/27 03:51:17;;;;;;;2.00;1.90;;;;;;;0.67;49.90;95799.31;5054314;28;20092;-77
2023/01/27 03:53:42;;;;;;;3.65;2.00;;;;;;;0.28;50.10;95802.06;5071730;28;20091;-76
2023/01/27 03:56:08;;;;;;;2.08;1.77;;;;;;;0.47;51.20;95803.38;5063108;28;20102;-77
2023/01/27 03:58:34;;;;;;;2.35;2.15;;;;;;;-0.14;50.93;95796.28;5062531;28;20218;-76
2023/01/27 04:01:04;;;;;;;2.35;2.08;;;;;;;-0.34;52.60;95801.94;5052552;28;20094;-76
2023/01/27 04:09:02;;;;;;;3.95;2.58;;;;;;;0.06;51.68;95802.72;5055607;28;20575;-77
2023/01/27 04:14:12;;;;;;;1.65;1.52;;;;;;;-0.09;53.15;95813.34;5063845;28;20080;-76
2023/01/27 04:16:38;;;;;;;2.55;2.10;;;;;;;0.42;51.12;95798.47;5067533;28;20101;-77
2023/01/27 04:19:04;;;;;;;1.95;1.75;;;;;;;0.42;51.23;95797.63;5068306;28;20561;-77
2023/01/27 04:21:29;;;;;;;2.67;2.00;;;;;;;0.41;49.51;95794.16;5069738;28;20417;-76
2023/01/27 04:23:55;;;;;;;2.25;2.03;;;;;;;0.38;50.87;95798.78;5069843;28;20485;-77
2023/01/27 04:26:20;;;;;;;3.10;1.88;;;;;;;-0.89;55.38;95811.72;5069005;28;20534;-75
2023/01/27 04:28:46;;;;;;;2.03;1.85;;;;;;;-1.13;56.00;95807.97;5052814;28;20100;-77
2023/01/27 04:31:12;;;;;;;2.70;2.03;;;;;;;-0.22;53.81;95802.88;5067970;28;20111;-77
2023/01/27 04:33:37;;;;;;;3.10;2.15;;;;;;;-0.05;52.09;95806.09;5069172;28;20345;-77
2023/01/27 04:36:03;;;;;;;2.25;2.03;;;;;;;0.24;50.87;95800.59;5068627;28;20700;-76
2023/01/27 04:38:28;;;;;;;1.77;1.67;;;;;;;0.11;52.28;95800.66;5071180;28;20110;-76
2023/01/27 04:40:54;;;;;;;1.88;1.77;;;;;;;-0.05;51.37;95804.34;5066747;28;20106;-77
2023/01/27 04:43:20;;;;;;;2.28;1.95;;;;;;;0.33;51.27;95806.97;5072297;28;20505;-77
2023/01/27 04:45:45;;;;;;;1.60;1.50;;;;;;;0.45;52.53;95802.66;5071745;28;20070;-77
2023/01/27 04:48:11;;;;;;;2.42;2.22;;;;;;;-0.04;50.46;95810.41;5069638;28;20134;-76
2023/01/27 04:50:36;;;;;;;3.00;1.90;;;;;;;-0.14;53.34;95810.19;5069453;28;20081;-76
2023/01/27 04:53:01;;;;;;;1.75;1.65;;;;;;;0.08;53.74;95817.38;5067819;28;20576;-76
2023/01/27 04:55:27;;;;;;;2.25;2.00;;;;;;;-0.03;50.99;95811.25;5068576;28;20096;-77
2023/01/27 04:57:52;;;;;;;1.90;1.80;;;;;;;-0.03;51.39;95808.63;5070101;28;20070;-76
2023/01/27 05:00:18;;;;;;;2.10;1.90;;;;;;;-0.58;52.67;95823.59;5069797;28;20096;-77
2023/01/27 05:02:44;;;;;;;2.22;2.03;;;;;;;-0.12;53.54;95817.94;5056699;28;20055;-77
2023/01/27 05:05:09;;;;;;;3.15;1.90;;;;;;;0.37;52.22;95818.09;5070197;28;20270;-76
2023/01/27 05:07:35;;;;;;;1.75;1.65;;;;;;;0.60;51.28;95826.91;5069314;28;20661;-76
2023/01/27 05:10:00;;;;;;;2.58;1.90;;;;;;;0.55;49.45;95827.22;5069768;28;20582;-76
2023/01/27 05:12:25;;;;;;;1.70;1.60;;;;;;;0.62;50.65;95826.81;5070439;28;20111;-77
2023/01/27 05:14:51;;;;;;;2.30;2.10;;;;;;;0.58;49.17;95831.44;5065539;28;20071;-76
2023/01/27 05:17:16;;;;;;;3.60;2.30;;;;;;;-2.55;57.12;95841.94;5066506;28;20070;-76
2023/01/27 05:19:42;;;;;;;2.72;2.13;;;;;;;-0.80;54.04;95842.50;5070137;28;20100;-77
2023/01/27 05:22:09;;;;;;;1.75;1.65;;;;;;;0.08;53.82;95832.28;5073291;28;20426;-76
2023/01/27 05:24:35;;;;;;;2.22;2.03;;;;;;;-0.39;52.91;95839.81;5071497;28;20102;-76
2023/01/27 05:27:01;;;;;;;2.13;1.88;;;;;;;0.25;52.76;95844.19;5072496;28;20566;-76
2023/01/27 05:29:26;;;;;;;1.85;1.75;;;;;;;0.25;51.89;95844.19;5075151;28;20072;-77
2023/01/27 05:31:52;;;;;;;2.13;1.88;;;;;;;0.63;50.97;95846.81;5070355;28;20106;-76
2023/01/27 05:34:17;;;;;;;2.55;1.95;;;;;;;0.08;51.77;95842.75;5080242;28;20073;-76
2023/01/27 05:36:42;;;;;;;2.88;2.30;;;;;;;0.31;50.75;95842.94;5073617;28;20106;-77
2023/01/27 05:39:11;;;;;;;2.00;1.90;;;;;;;0.32;50.02;95842.81;5071300;28;20095;-76
2023/01/27 05:41:36;;;;;;;2.23;2.00;;;;;;;-0.05;50.97;95848.00;5072583;28;20075;-76
2023/01/27 05:44:02;;;;;;;2.08;1.98;;;;;;;0.45;51.09;95841.94;5071581;28;20109;-77
2023/01/27 05:46:28;;;;;;;2.22;2.00;;;;;;;0.29;50.39;95850.91;5051336;28;20476;-76
2023/01/27 05:48:55;;;;;;;1.88;1.55;;;;;;;0.70;52.07;95855.91;5070935;28;20096;-77
2023/01/27 05:51:22;;;;;;;1.60;1.50;;;;;;;0.75;50.72;95866.88;5073064;28;20671;-77
2023/01/27 05:53:47;;;;;;;2.13;1.77;;;;;;;0.87;49.12;95869.56;5056232;28;20090;-76
2023/01/27 05:56:14;;;;;;;1.67;1.58;;;;;;;0.95;50.58;95864.63;5072895;28;20099;-76
2023/01/27 05:58:40;;;;;;;1.55;1.45;;;;;;;0.76;51.72;95865.13;5071756;28;20089;-76
2023/01/27 06:01:09;;;;;;;1.35;1.25;;;;;;;0.99;49.22;95871.34;5073685;28;20137;-76
2023/01/27 06:03:34;;;;;;;1.77;1.42;;;;;;;1.13;49.09;95869.47;5063706;28;20089;-77
2023/01/27 06:06:00;;;;;;;1.02;1.02;;;;;;;1.36;49.67;95866.00;5069398;28;20563;-76
2023/01/27 06:08:25;;;;;;;1.13;1.13;;;;;;;1.05;49.66;95873.50;5070209;28;20113;-76
2023/01/27 06:10:51;;;;;;;1.80;1.70;;;;;;;0.89;47.97;95880.81;5071548;28;20079;-77
2023/01/27 06:13:17;;;;;;;1.60;1.50;;;;;;;1.02;50.48;95883.38;5073500;28;20745;-76
2023/01/27 06:15:43;;;;;;;1.80;1.33;;;;;;;0.94;49.88;95881.31;5052575;28;20102;-76
2023/01/27 06:18:09;;;;;;;1.70;1.50;;;;;;;-0.31;50.41;95892.47;5057838;28;20581;-76
2023/01/27 06:20:35;;;;;;;2.10;1.40;;;;;;;0.47;51.45;95884.59;5071445;28;20095;-77
2023/01/27 06:23:00;;;;;;;1.55;1.25;;;;;;;0.32;51.30;95889.97;5071278;28;20095;-76
2023/01/27 06:25:26;;;;;;;1.77;1.40;;;;;;;0.56;50.67;95890.97;5074790;28;20075;-77
2023/01/27 06:27:55;;;;;;;1.63;1.52;;;;;;;0.90;51.54;95882.47;5051982;28;20106;-76
2023/01/27 06:30:20;;;;;;;;;;;;;;;0.78;49.35;95887.66;5072623;28;20081;-76
2023/01/27 06:32:45;;;;;;;1.00;1.00;;;;;;;0.72;51.11;95882.88;5072199;28;20326;-77
2023/01/27 06:35:11;;;;;;;1.70;1.60;;;;;;;0.71;51.07;95883.78;5075299;28;20097;-77
2023/01/27 06:37:36;;;;;;;1.58;1.50;;;;;;;0.84;49.54;95887.22;5073970;28;20074;-76
2023/01/27 06:40:03;;;;;;;1.65;1.55;;;;;;;0.91;50.97;95892.84;5068621;28;20089;-77
2023/01/27 06:42:29;;;;;;;1.38;1.27;;;;;;;0.99;50.46;95892.31;5073501;28;20108;-77
2023/01/27 06:44:54;;;;;;;2.13;1.92;;;;;;;0.83;50.54;95895.19;5069314;28;20454;-77
2023/01/27 06:47:20;;;;;;;1.88;1.77;;;;;;;0.57;49.04;95903.97;5070250;28;20093;-77
2023/01/27 06:49:45;;;;;;;1.40;1.30;;;;;;;0.83;51.74;95901.28;5072268;28;20463;-76
2023/01/27 06:52:11;;;;;;;1.60;1.50;;;;;;;0.60;49.48;95908.16;5070809;28;20129;-77
2023/01/27 06:54:36;;;;;;;1.50;1.40;;;;;;;0.97;50.24;95904.69;5072101;28;20066;-76
2023/01/27 06:57:01;;;;;;;1.50;1.40;;;;;;;0.68;51.29;95903.19;5073597;28;20068;-77
2023/01/27 06:59:27;;;;;;;2.40;1.63;;;;;;;-0.26;52.49;95906.09;5070044;28;20146;-76
2023/01/27 07:01:52;;;;;;;1.40;1.30;;;;;;;0.49;52.52;95900.19;5054910;28;20082;-76
2023/01/27 07:04:18;;;;;;;2.00;1.52;;;;;;;0.09;52.23;95891.56;5053502;28;20482;-76
2023/01/27 07:06:43;;;;;;;1.25;1.25;;;;;;;-0.55;55.50;95898.41;5066845;28;20076;-76
2023/01/27 07:09:09;;;;;;;1.85;1.75;;;;;;;-1.84;56.20;95907.28;5072362;28;20064;-76
2023/01/27 07:11:34;;;;;;;1.60;1.50;;;;;;;-2.59;59.69;95911.66;5069355;28;20548;-76
2023/01/27 07:14:00;;;;;;;1.63;1.52;;;;;;;-1.17;56.44;95912.78;5079014;28;20500;-76
2023/01/27 07:16:26;;;;;;;1.63;1.52;;;;;;;-1.85;58.91;95913.44;5074422;28;20377;-76
2023/01/27 07:18:51;;;;;;;2.38;1.90;;;;;;;-1.65;55.84;95914.84;5068914;28;20084;-76
2023/01/27 07:21:17;;;;;;;1.70;1.60;;;;;;;-2.42;60.97;95925.47;5067717;28;20522;-77
2023/01/27 07:23:42;;;;;;;1.73;1.63;;;;;;;-2.67;59.68;95922.53;5072312;28;20108;-76
2023/01/27 07:26:07;;;;;;;1.50;1.40;;;;;;;-2.63;63.86;95918.81;5048487;28;20070;-76
2023/01/27 07:28:33;;;;;;;1.60;1.50;;;;;;;-2.02;60.08;95922.28;5074669;28;20968;-76
2023/01/27 07:31:01;;;;;;;1.38;1.08;;;;;;;-0.60;55.00;95917.00;5068496;28;20065;-76
2023/01/27 07:33:27;;;;;;;1.20;1.07;;;;;;;-1.24;58.68;95917.56;5052028;28;20077;-77
2023/01/27 07:35:53;;;;;;;1.50;1.40;;;;;;;-1.26;57.41;95922.03;5069408;28;20836;-77
2023/01/27 07:38:18;;;;;;;1.90;1.80;;;;;;;-1.92;59.83;95931.25;5075873;28;20095;-76
2023/01/27 07:40:44;;;;;;;1.80;1.70;;;;;;;-1.87;57.54;95933.56;5069997;28;20106;-77
2023/01/27 07:43:10;;;;;;;1.73;1.63;;;;;;;-0.93;56.32;95927.88;5068316;28;20105;-77
2023/01/27 07:45:35;;;;;;;2.08;1.70;;;;;;;-1.43;58.59;95928.34;5067692;28;20082;-76
2023/01/27 07:48:01;;;;;;;1.60;1.50;;;;;;;-0.80;56.71;95931.41;5069061;28;20473;-76
2023/01/27 07:50:27;;;;;;;3.65;2.20;;;;;;;-1.17;56.37;95937.16;5069240;28;20313;-76
2023/01/27 07:52:52;;;;;;;1.88;1.77;;;;;;;-0.73;55.72;95943.16;5070948;28;20102;-76
2023/01/27 07:55:18;;;;;;;2.22;1.70;;;;;;;-0.03;53.17;95929.06;5070476;28;20740;-77
2023/01/27 07:57:43;;;;;;;1.70;1.60;;;;;;;0.20;52.62;95932.69;5072981;28;20087;-75
2023/01/27 08:00:14;;;;;;;1.40;1.30;;;;;;;0.15;54.55;95940.91;5069958;28;20097;-77
2023/01/27 08:02:39;;;;;;;2.17;1.75;;;;;;;-0.51;54.64;95946.97;5071033;28;20127;-76
2023/01/27 08:05:05;;;;;;;1.58;1.48;;;;;;;-0.23;54.07;95944.31;5073026;28;20099;-77
2023/01/27 08:07:31;;;;;;;1.67;1.58;;;;;;;-0.01;54.79;95951.56;5068449;28;20171;-77
2023/01/27 08:09:56;;;;;;;1.70;1.60;;;;;;;-0.47;55.08;95952.84;5071794;28;20071;-76
2023/01/27 08:12:22;;;;;;;1.70;1.60;;;;;;;-0.21;55.13;95950.28;5067849;28;20094;-76
2023/01/27 08:14:47;;;;;;;2.33;1.83;;;;;;;0.28;51.95;95953.16;5074810;28;20141;-77
2023/01/27 08:17:13;;;;;;;2.35;1.92;;;;;;;0.24;51.47;95952.50;5068582;28;20061;-77
2023/01/27 08:19:38;;;;;;;1.60;1.50;;;;;;;0.72;51.89;95948.38;5066503;28;20095;-77
2023/01/27 08:22:03;;;;;;;1.70;1.60;;;;;;;1.40;50.49;95955.81;5071685;28;20076;-76
2023/01/27 08:24:29;;;;;;;1.55;1.45;;;;;;;1.72;50.04;95943.91;5068386;28;20090;-77
2023/01/27 08:26:55;;;;;;;1.83;1.73;;;;;;;1.61;49.21;95955.22;5069091;28;20560;-77
2023/01/27 08:29:20;;;;;;;1.30;1.20;;;;;;;1.92;49.53;95955.56;5073139;28;20069;-76
2023/01/27 08:31:46;;;;;;;1.52;1.42;;;;;;;2.23;48.55;95955.88;5068347;28;20099;-76
2023/01/27 08:34:12;;;;;;;1.90;1.80;;;;;;;2.43;47.66;95960.53;5067596;28;20089;-77
2023/01/27 08:36:40;;;;;;;1.23;1.15;;;;;;;2.53;47.63;95967.59;5066470;28;20090;-76
2023/01/27 08:39:06;;;;;;;1.80;1.70;;;;;;;2.62;46.91;95963.41;5065492;28;20108;-77
2023/01/27 08:41:31;;;;;;;1.50;1.40;;;;;;;2.72;46.52;95974.03;5078376;28;20073;-76
2023/01/27 08:43:56;;;;;;;2.03;1.77;;;;;;;2.84;46.52;95977.53;5072291;28;20097;-77
2023/01/27 08:46:22;;;;;;;1.60;1.50;;;;;;;2.81;46.56;95977.75;5068259;28;20059;-76
2023/01/27 08:48:49;;;;;;;1.67;1.58;;;;;;;2.86;46.48;95977.41;5066905;28;20093;-76
2023/01/27 08:51:14;;;;;;;1.30;1.20;;;;;;;3.06;46.45;95977.63;5057498;28;20084;-77
2023/01/27 08:53:40;;;;;;;1.67;1.58;;;;;;;3.17;45.76;95982.88;5055518;28;20087;-76
2023/01/27 08:56:07;;;;;;;3.20;1.75;;;;;;;3.20;45.92;95987.03;5052149;28;20094;-77
2023/01/27 08:58:33;;;;;;;2.42;1.80;;;;;;;3.37;45.63;95983.88;5067446;28;20596;-77
2023/01/27 09:01:00;;;;;;;1.88;1.65;;;;;;;3.34;45.56;95983.31;5072839;28;20111;-76
2023/01/27 09:03:26;;;;;;;1.42;1.33;;;;;;;3.50;45.21;95985.59;5068232;28;20526;-77
2023/01/27 09:05:51;;;;;;;1.80;1.58;;;;;;;3.73;45.19;95985.47;5068413;28;20070;-77
2023/01/27 09:08:17;;;;;;;3.85;2.53;;;;;;;3.80;44.04;95982.22;5067504;28;20084;-76
2023/01/27 09:10:42;;;;;;;2.13;1.90;;;;;;;3.97;43.64;95981.78;5069265;28;20053;-77
2023/01/27 09:13:08;;;;;;;3.88;2.15;;;;;;;4.03;43.39;95983.91;5076874;28;20539;-77
2023/01/27 09:15:34;;;;;;;2.42;1.88;;;;;;;4.06;43.01;95988.94;5075345;28;20432;-77
2023/01/27 09:18:00;;;;;;;1.70;1.60;;;;;;;4.12;43.42;95992.88;5076330;28;20053;-77
2023/01/27 09:20:25;;;;;;;2.17;1.98;;;;;;;4.02;43.51;95992.78;5072835;28;20560;-76
2023/01/27 09:22:51;;;;;;;1.80;1.70;;;;;;;4.02;43.74;95988.34;5074279;28;20056;-77
2023/01/27 09:25:16;;;;;;;1.98;1.70;;;;;;;4.18;43.69;95995.81;5039792;28;20044;-76
2023/01/27 09:27:42;;;;;;;2.40;2.17;;;;;;;4.17;43.42;95988.03;5070709;28;20090;-77
2023/01/27 09:30:09;;;;;;;2.88;2.00;;;;;;;4.16;42.84;95989.84;5071910;28;20076;-77
2023/01/27 09:32:35;;;;;;;1.80;1.70;;;;;;;4.15;42.79;95996.06;5061687;28;20090;-77
2023/01/27 09:35:00;;;;;;;1.10;1.10;;;;;;;4.32;43.11;95991.19;5062281;28;20471;-77
2023/01/27 09:37:25;;;;;;;1.50;1.40;;;;;;;3.94;43.58;95986.34;5070843;28;20065;-76
2023/01/27 09:39:55;;;;;;;1.30;1.20;;;;;;;4.34;42.89;95986.63;5046640;28;20088;-77
2023/01/27 09:42:31;;;;;;;1.10;1.10;;;;;;;4.36;42.93;95992.63;5042228;28;20552;-77
2023/01/27 09:45:06;;;;;;;1.20;1.10;;;;;;;4.65;42.31;95994.56;5068707;28;20083;-77
2023/01/27 09:47:50;;;;;;;1.50;1.40;;;;;;;4.69;41.93;95995.97;5066665;28;20071;-77
2023/01/27 09:50:43;;;;;;;0.90;0.90;;;;;;;4.71;42.39;96009.88;5066996;28;20464;-77
2023/01/27 09:53:08;;;;;;;0.95;0.90;;;;;;;4.83;41.99;96009.78;5068496;28;20228;-76
2023/01/27 09:55:56;;;;;;;1.20;1.10;;;;;;;4.78;41.76;96007.53;5067684;28;20151;-77
2023/01/27 09:58:43;;;;;;;1.73;1.30;;;;;;;4.67;41.75;96016.38;5067415;28;20108;-77
2023/01/27 10:01:30;;;;;;;0.82;0.82;;;;;;;4.68;42.21;96010.13;5068469;28;20316;-76
2023/01/27 10:04:21;;;;;;;1.02;1.02;;;;;;;4.63;41.58;96012.31;5071701;28;20558;-76
2023/01/27 10:07:02;;;;;;;1.17;1.17;;;;;;;4.72;41.80;96026.53;5068685;28;20049;-76
2023/01/27 10:09:58;;;;;;;1.15;1.02;;;;;;;4.74;41.44;96013.19;5054435;28;20037;-76
2023/01/27 10:12:28;;;;;;;1.23;1.13;;;;;;;4.78;41.96;96025.16;5069379;28;20087;-77
2023/01/27 10:15:10;;;;;;;1.30;1.20;;;;;;;4.63;41.89;96022.84;5065881;28;20089;-77
2023/01/27 10:18:06;;;;;;;1.95;1.40;;;;;;;4.89;41.71;96025.06;5070075;28;20062;-76
2023/01/27 10:20:43;;;;;;;1.83;1.55;;;;;;;5.03;41.21;96028.34;5071101;28;20585;-77
2023/01/27 10:23:31;;;;;;;2.05;1.48;;;;;;;5.07;40.80;96024.50;5075115;28;20551;-76
2023/01/27 10:26:13;;;;;;;1.63;1.53;;;;;;;5.09;41.34;96030.47;5072277;28;20122;-76
2023/01/27 10:28:39;;;;;;;4.07;2.42;;;;;;;5.13;41.00;96025.78;5070427;28;20082;-77
2023/01/27 10:31:32;;;;;;;3.08;1.80;;;;;;;4.98;41.32;96036.66;5073114;28;20082;-76
2023/01/27 10:34:02;;;;;;;2.25;1.70;;;;;;;5.16;41.23;96018.41;5072078;28;20082;-76
2023/01/27 10:36:29;;;;;;;2.25;1.60;;;;;;;5.33;40.89;96024.00;5074351;28;20080;-76
2023/01/27 10:39:06;;;;;;;2.35;1.60;;;;;;;5.61;40.48;96030.31;5074263;28;20173;-76
2023/01/27 10:41:56;;;;;;;1.60;1.50;;;;;;;5.72;39.48;96033.84;5073840;28;21927;-77
2023/01/27 10:44:37;;;;;;;1.17;1.17;;;;;;;5.64;38.76;96031.84;5070469;28;20067;-76
2023/01/27 10:47:09;;;;;;;1.00;1.00;;;;;;;5.42;39.65;96044.34;5070812;28;20158;-76
2023/01/27 10:49:37;;;;;;;0.90;0.90;;;;;;;5.33;40.20;96032.78;5063171;28;20097;-76
2023/01/27 10:52:08;;;;;;;;;;;;;;;5.19;40.68;96036.63;5059379;28;20467;-77
2023/01/27 10:54:55;;;;;;;1.10;1.00;;;;;;;4.92;40.57;96047.72;5064138;28;19939;-77
2023/01/27 10:57:32;;;;;;;1.90;1.70;;;;;;;5.50;40.39;96038.38;5068923;28;20078;-76
2023/01/27 11:00:05;;;;;;;1.50;1.40;;;;;;;6.01;39.50;96033.00;5035568;28;20068;-75
2023/01/27 11:02:56;;;;;;;1.10;1.00;;;;;;;6.44;38.85;96035.34;5070670;28;20074;-77
2023/01/27 11:05:32;;;;;;;2.38;1.08;;;;;;;6.89;37.94;96029.44;5056588;28;20080;-76
2023/01/27 11:08:01;;;;;;;1.08;1.05;;;;;;;7.35;37.48;96025.19;5053068;28;20081;-76
2023/01/27 11:10:32;;;;;;;1.50;1.40;;;;;;;7.79;35.68;96022.72;5055815;28;20050;-77
2023/01/27 11:12:57;;;;;;;1.08;1.08;;;;;;;7.88;35.35;96028.94;5055826;28;20252;-77
2023/01/27 11:15:32;;;;;;;0.95;0.95;;;;;;;7.91;35.30;96033.94;5047099;28;20065;-77
2023/01/27 11:18:24;;;;;;;0.90;0.90;;;;;;;7.84;35.81;96030.22;5070597;28;20057;-76
2023/01/27 11:21:18;;;;;;;1.23;1.13;;;;;;;7.63;36.10;96033.97;5065568;28;20066;-77
2023/01/27 11:23:45;;;;;;;1.30;1.20;;;;;;;7.55;36.08;96033.84;5072252;28;20086;-76
2023/01/27 11:26:35;;;;;;;1.17;1.08;;;;;;;7.26;36.65;96037.50;5056522;28;20073;-77
2023/01/27 11:29:12;;;;;;;1.20;1.20;;;;;;;7.05;36.98;96040.38;5065222;28;20064;-75
2023/01/27 11:32:00;;;;;;;1.48;1.10;;;;;;;6.56;37.64;96036.88;5066496;28;20429;-76
2023/01/27 11:34:56;;;;;;;0.70;0.70;;;;;;;6.67;37.42;96035.06;5043571;28;20087;-76
2023/01/27 11:37:38;;;;;;;1.60;1.45;;;;;;;6.58;37.21;96021.72;5074384;28;20667;-77
2023/01/27 11:40:16;;;;;;;7.45;1.50;;;;;;;6.31;37.88;96025.91;5068019;28;20113;-77
2023/01/27 11:42:42;;;;;;;1.70;1.60;;;;;;;6.15;37.98;96023.00;5075366;28;20185;-76
2023/01/27 11:45:12;;;;;;;2.55;2.00;;;;;;;6.13;37.96;96016.03;5052308;28;20027;-76
2023/01/27 11:47:38;;;;;;;3.08;2.10;;;;;;;6.41;38.14;96022.41;5054929;28;20572;-76
2023/01/27 11:50:04;;;;;;;1.70;1.60;;;;;;;6.56;37.60;96012.25;5066867;28;20470;-76
2023/01/27 11:52:29;;;;;;;1.20;1.20;;;;;;;6.41;38.38;96011.81;5070211;28;20126;-77
2023/01/27 11:55:04;;;;;;;1.50;1.40;;;;;;;6.34;38.29;96011.56;5053462;28;20087;-76
2023/01/27 11:57:29;;;;;;;1.15;1.10;;;;;;;6.67;37.60;96009.44;5086217;28;20029;-76
2023/01/27 12:00:00;;;;;;;1.50;1.40;;;;;;;6.82;37.28;96015.09;5042216;28;20066;-76
2023/01/27 12:02:32;;;;;;;2.55;2.17;;;;;;;6.85;37.20;96001.59;5042970;28;20042;-77
2023/01/27 12:05:02;;;;;;;1.45;1.35;;;;;;;6.92;37.32;96004.47;5072469;28;20102;-76
2023/01/27 12:07:54;;;;;;;1.90;1.40;;;;;;;7.18;36.82;95998.53;5066094;28;20083;-76
2023/01/27 12:10:30;;;;;;;2.78;2.28;;;;;;;6.93;37.12;96000.03;5068043;28;20053;-77
2023/01/27 12:12:59;;;;;;;2.20;2.00;;;;;;;6.82;37.39;95993.09;5073350;28;20089;-76